createdAt,value
2022-09-14T00:02:20.235Z,19.70
2022-09-14T00:04:46.951Z,19.70
2022-09-14T00:07:13.581Z,19.80
2022-09-14T00:09:40.191Z,19.70
2022-09-14T00:12:07.152Z,19.80
2022-09-14T00:14:33.778Z,19.80
2022-09-14T00:17:00.491Z,19.80
2022-09-14T00:19:27.857Z,19.80
2022-09-14T00:21:58.736Z,19.80
2022-09-14T00:24:27.414Z,19.80
2022-09-14T00:26:54.395Z,19.80
2022-09-14T00:29:21.055Z,19.80
2022-09-14T00:31:47.968Z,19.80
2022-09-14T00:34:16.827Z,19.80
2022-09-14T00:36:47.304Z,19.90
2022-09-14T00:39:15.227Z,19.90
2022-09-14T00:41:43.812Z,19.80
2022-09-14T00:44:10.459Z,19.90
2022-09-14T00:46:42.739Z,19.80
2022-09-14T00:49:39.976Z,19.80
2022-09-14T00:52:30.660Z,19.80
2022-09-14T00:55:01.338Z,19.80
2022-09-14T00:57:31.199Z,19.80
2022-09-14T00:59:58.113Z,19.80
2022-09-14T01:02:27.332Z,19.70
2022-09-14T01:04:54.420Z,19.70
2022-09-14T01:07:38.116Z,19.70
2022-09-14T01:10:10.778Z,19.70
2022-09-14T01:13:02.078Z,19.60
2022-09-14T01:15:58.604Z,19.60
2022-09-14T01:18:29.821Z,19.60
2022-09-14T01:21:10.181Z,19.60
2022-09-14T01:23:42.119Z,19.60
2022-09-14T01:26:27.555Z,19.60
2022-09-14T01:28:58.701Z,19.70
2022-09-14T01:31:41.270Z,19.60
2022-09-14T01:34:12.785Z,19.70
2022-09-14T01:36:43.538Z,19.70
2022-09-14T01:39:10.856Z,19.70
2022-09-14T01:41:39.660Z,19.70
2022-09-14T01:44:27.163Z,19.80
2022-09-14T01:46:57.824Z,19.70
2022-09-14T01:49:43.542Z,19.70
2022-09-14T01:52:18.012Z,19.60
2022-09-14T01:55:09.817Z,19.60
2022-09-14T01:57:55.520Z,19.60
2022-09-14T02:00:22.892Z,19.50
2022-09-14T02:03:00.605Z,19.60
2022-09-14T02:05:39.314Z,19.60
2022-09-14T02:08:06.037Z,19.50
2022-09-14T02:10:33.092Z,19.60
2022-09-14T02:12:59.830Z,19.60
2022-09-14T02:15:26.675Z,19.60
2022-09-14T02:17:54.433Z,19.60
2022-09-14T02:20:44.053Z,19.60
2022-09-14T02:23:10.734Z,19.60
2022-09-14T02:25:40.895Z,19.60
2022-09-14T02:28:08.093Z,19.70
2022-09-14T02:30:53.633Z,19.70
2022-09-14T02:33:40.797Z,19.60
2022-09-14T02:36:36.121Z,19.50
2022-09-14T02:39:20.859Z,19.40
2022-09-14T02:42:04.403Z,19.30
2022-09-14T02:45:00.902Z,19.30
2022-09-14T02:47:30.679Z,19.30
2022-09-14T02:50:08.182Z,19.30
2022-09-14T02:52:46.862Z,19.40
2022-09-14T02:55:18.083Z,19.40
2022-09-14T02:58:06.312Z,19.40
2022-09-14T03:00:45.354Z,19.40
2022-09-14T03:03:14.531Z,19.50
2022-09-14T03:05:41.632Z,19.50
2022-09-14T03:08:10.296Z,19.50
2022-09-14T03:10:37.581Z,19.50
2022-09-14T03:13:04.588Z,19.50
2022-09-14T03:15:31.245Z,19.60
2022-09-14T03:17:57.985Z,19.60
2022-09-14T03:20:29.464Z,19.50
2022-09-14T03:22:57.911Z,19.50
2022-09-14T03:25:24.606Z,19.50
2022-09-14T03:27:53.547Z,19.50
2022-09-14T03:30:21.167Z,19.50
2022-09-14T03:32:48.482Z,19.50
2022-09-14T03:35:16.158Z,19.50
2022-09-14T03:37:44.213Z,19.50
2022-09-14T03:40:12.690Z,19.50
2022-09-14T03:42:44.591Z,19.50
2022-09-14T03:45:12.898Z,19.50
2022-09-14T03:47:39.994Z,19.50
2022-09-14T03:50:08.736Z,19.50
2022-09-14T03:52:36.672Z,19.50
2022-09-14T03:55:05.205Z,19.50
2022-09-14T03:57:32.785Z,19.50
2022-09-14T03:59:59.653Z,19.50
2022-09-14T04:02:27.719Z,19.50
2022-09-14T04:04:54.360Z,19.50
2022-09-14T04:07:21.019Z,19.50
2022-09-14T04:09:47.622Z,19.60
2022-09-14T04:12:14.458Z,19.60
2022-09-14T04:14:41.094Z,19.60
2022-09-14T04:17:07.725Z,19.60
2022-09-14T04:19:37.474Z,19.60
2022-09-14T04:22:05.382Z,19.70
2022-09-14T04:24:32.132Z,19.60
2022-09-14T04:26:58.942Z,19.60
2022-09-14T04:29:25.616Z,19.60
2022-09-14T04:31:52.294Z,19.60
2022-09-14T04:34:18.903Z,19.60
2022-09-14T04:36:45.520Z,19.60
2022-09-14T04:39:13.714Z,19.70
2022-09-14T04:41:40.906Z,19.60
2022-09-14T04:44:07.842Z,19.60
2022-09-14T04:46:45.033Z,19.70
2022-09-14T04:49:12.969Z,19.60
2022-09-14T04:51:39.819Z,19.60
2022-09-14T04:54:07.481Z,19.60
2022-09-14T04:56:35.738Z,19.60
2022-09-14T04:59:04.313Z,19.60
2022-09-14T05:01:34.727Z,19.60
2022-09-14T05:04:01.957Z,19.60
2022-09-14T05:06:33.935Z,19.60
2022-09-14T05:09:02.085Z,19.60
2022-09-14T05:11:31.532Z,19.70
2022-09-14T05:13:59.589Z,19.70
2022-09-14T05:16:29.382Z,19.60
2022-09-14T05:18:58.749Z,19.60
2022-09-14T05:21:25.722Z,19.60
2022-09-14T05:24:04.670Z,19.60
2022-09-14T05:26:32.400Z,19.60
2022-09-14T05:29:01.858Z,19.60
2022-09-14T05:31:29.890Z,19.60
2022-09-14T05:33:56.717Z,19.60
2022-09-14T05:36:23.733Z,19.60
2022-09-14T05:38:50.498Z,19.60
2022-09-14T05:41:17.529Z,19.60
2022-09-14T05:43:44.664Z,19.60
2022-09-14T05:46:20.164Z,19.60
2022-09-14T05:48:47.471Z,19.60
2022-09-14T05:51:16.501Z,19.60
2022-09-14T05:53:50.632Z,19.60
2022-09-14T05:56:18.561Z,19.50
2022-09-14T05:58:45.939Z,19.60
2022-09-14T06:01:18.460Z,19.70
2022-09-14T06:03:46.555Z,19.60
2022-09-14T06:06:15.772Z,19.50
2022-09-14T06:08:42.763Z,19.60
2022-09-14T06:11:15.271Z,19.50
2022-09-14T06:13:42.824Z,19.60
2022-09-14T06:16:12.762Z,19.60
2022-09-14T06:18:40.872Z,19.70
2022-09-14T06:21:09.311Z,19.70
2022-09-14T06:23:36.021Z,19.70
2022-09-14T06:26:04.557Z,19.80
2022-09-14T06:28:31.956Z,19.80
2022-09-14T06:30:58.670Z,19.80
2022-09-14T06:33:25.388Z,19.90
2022-09-14T06:36:04.022Z,19.90
2022-09-14T06:38:31.227Z,19.90
2022-09-14T06:40:59.987Z,20.00
2022-09-14T06:43:29.030Z,20.00
2022-09-14T06:46:03.738Z,20.10
2022-09-14T06:48:35.504Z,20.10
2022-09-14T06:51:21.747Z,20.10
2022-09-14T06:53:49.476Z,20.20
2022-09-14T06:56:17.379Z,20.10
2022-09-14T06:58:44.187Z,20.10
2022-09-14T07:01:14.855Z,20.10
2022-09-14T07:03:43.860Z,20.10
2022-09-14T07:06:19.713Z,20.10
2022-09-14T07:08:46.697Z,20.10
2022-09-14T07:11:15.450Z,20.20
2022-09-14T07:13:42.117Z,20.30
2022-09-14T07:16:09.134Z,20.40
2022-09-14T07:18:36.623Z,20.40
2022-09-14T07:21:05.946Z,20.40
2022-09-14T07:23:33.603Z,20.40
2022-09-14T07:26:05.190Z,20.50
2022-09-14T07:28:33.099Z,20.70
2022-09-14T07:31:00.719Z,20.50
2022-09-14T07:33:28.119Z,20.60
2022-09-14T07:35:55.161Z,20.80
2022-09-14T07:38:35.809Z,20.90
2022-09-14T07:41:08.550Z,21.00
2022-09-14T07:43:35.291Z,21.40
2022-09-14T07:46:04.354Z,21.90
2022-09-14T07:48:32.046Z,22.40
2022-09-14T07:51:02.445Z,22.80
2022-09-14T07:53:30.001Z,22.60
2022-09-14T07:56:01.360Z,22.40
2022-09-14T07:58:31.446Z,22.10
2022-09-14T08:01:03.752Z,21.90
2022-09-14T08:03:31.611Z,21.80
2022-09-14T08:06:02.879Z,21.70
2022-09-14T08:08:31.236Z,21.60
2022-09-14T08:11:11.073Z,21.60
2022-09-14T08:13:39.731Z,21.50
2022-09-14T08:16:06.679Z,21.30
2022-09-14T08:18:35.195Z,21.30
2022-09-14T08:21:07.160Z,21.30
2022-09-14T08:23:34.951Z,21.20
2022-09-14T08:26:06.650Z,21.30
2022-09-14T08:28:33.993Z,21.30
2022-09-14T08:31:07.594Z,21.20
2022-09-14T08:33:37.167Z,21.30
2022-09-14T08:36:04.510Z,21.20
2022-09-14T08:38:31.223Z,21.10
2022-09-14T08:41:05.897Z,21.10
2022-09-14T08:43:32.978Z,21.10
2022-09-14T08:46:05.250Z,21.00
2022-09-14T08:48:37.055Z,20.90
2022-09-14T08:51:05.892Z,20.80
2022-09-14T08:53:37.620Z,20.70
2022-09-14T08:56:12.447Z,20.50
2022-09-14T08:58:48.719Z,20.50
2022-09-14T09:01:29.923Z,20.40
2022-09-14T09:04:27.571Z,20.40
2022-09-14T09:07:02.581Z,20.30
2022-09-14T09:09:39.552Z,20.40
2022-09-14T09:12:06.793Z,20.40
2022-09-14T09:14:41.161Z,20.40
2022-09-14T09:17:20.417Z,20.40
2022-09-14T09:20:03.842Z,20.50
2022-09-14T09:22:36.114Z,20.60
2022-09-14T09:25:04.677Z,20.60
2022-09-14T09:27:31.559Z,20.80
2022-09-14T09:29:58.306Z,20.80
2022-09-14T09:32:25.869Z,20.90
2022-09-14T09:34:52.799Z,20.90
2022-09-14T09:37:23.355Z,20.90
2022-09-14T09:39:51.119Z,20.90
2022-09-14T09:42:23.671Z,20.90
2022-09-14T09:44:53.263Z,20.80
2022-09-14T09:47:37.782Z,20.80
2022-09-14T09:50:13.620Z,20.70
2022-09-14T09:52:53.277Z,20.70
2022-09-14T09:55:26.414Z,20.70
2022-09-14T09:57:54.154Z,20.80
2022-09-14T10:00:25.671Z,20.90
2022-09-14T10:02:53.517Z,20.90
2022-09-14T10:05:28.858Z,20.90
2022-09-14T10:08:08.043Z,21.00
2022-09-14T10:10:42.691Z,21.00
2022-09-14T10:13:40.885Z,21.00
2022-09-14T10:16:18.549Z,21.20
2022-09-14T10:18:49.252Z,21.30
2022-09-14T10:21:20.873Z,21.20
2022-09-14T10:24:01.555Z,21.00
2022-09-14T10:26:33.401Z,21.20
2022-09-14T10:29:35.540Z,21.80
2022-09-14T10:32:20.063Z,22.40
2022-09-14T10:34:46.716Z,22.60
2022-09-14T10:37:24.211Z,22.80
2022-09-14T10:40:13.482Z,22.90
2022-09-14T10:42:49.347Z,23.00
2022-09-14T10:45:32.834Z,23.00
2022-09-14T10:48:14.459Z,23.00
2022-09-14T10:51:10.581Z,22.80
2022-09-14T10:53:57.429Z,22.60
2022-09-14T10:56:39.514Z,22.60
2022-09-14T10:59:13.494Z,22.70
2022-09-14T11:02:17.520Z,22.80
2022-09-14T11:05:10.848Z,22.90
2022-09-14T11:07:52.762Z,23.00
2022-09-14T11:10:38.694Z,23.10
2022-09-14T11:13:23.251Z,23.10
2022-09-14T11:16:06.291Z,23.20
2022-09-14T11:19:06.206Z,23.30
2022-09-14T11:21:45.786Z,23.30
2022-09-14T11:24:24.294Z,23.20
2022-09-14T11:27:15.628Z,23.20
2022-09-14T11:29:51.895Z,23.10
2022-09-14T11:32:21.267Z,23.20
2022-09-14T11:35:11.575Z,23.20
2022-09-14T11:38:02.978Z,23.10
2022-09-14T11:40:36.759Z,23.30
2022-09-14T11:43:17.952Z,23.40
2022-09-14T11:46:01.815Z,23.60
2022-09-14T11:48:43.198Z,23.70
2022-09-14T11:51:24.542Z,23.90
2022-09-14T11:53:51.312Z,24.00
2022-09-14T11:56:30.520Z,24.10
2022-09-14T11:58:59.709Z,24.10
2022-09-14T12:01:40.321Z,24.20
2022-09-14T12:04:18.181Z,24.20
2022-09-14T12:06:48.632Z,24.20
2022-09-14T12:09:20.880Z,24.30
2022-09-14T12:11:53.051Z,24.30
2022-09-14T12:14:40.625Z,24.40
2022-09-14T12:17:40.200Z,24.50
2022-09-14T12:20:58.108Z,24.50
2022-09-14T12:23:39.035Z,24.60
2022-09-14T12:26:14.333Z,24.60
2022-09-14T12:28:50.431Z,24.60
2022-09-14T12:31:38.396Z,24.60
2022-09-14T12:34:17.374Z,24.60
2022-09-14T12:36:43.956Z,24.70
2022-09-14T12:39:34.554Z,24.70
2022-09-14T12:42:25.309Z,24.70
2022-09-14T12:44:52.564Z,24.70
2022-09-14T12:47:25.330Z,24.70
2022-09-14T12:50:19.161Z,24.70
2022-09-14T12:53:20.303Z,24.60
2022-09-14T12:56:00.736Z,24.50
2022-09-14T12:58:39.931Z,24.50
2022-09-14T13:01:16.222Z,24.50
2022-09-14T13:03:54.734Z,24.50
2022-09-14T13:06:23.243Z,24.50
2022-09-14T13:08:54.827Z,24.50
2022-09-14T13:11:30.716Z,24.50
2022-09-14T13:13:57.830Z,24.50
2022-09-14T13:16:46.498Z,24.50
2022-09-14T13:19:33.438Z,24.50
2022-09-14T13:22:02.374Z,24.50
2022-09-14T13:24:34.804Z,24.40
2022-09-14T13:27:03.022Z,24.20
2022-09-14T13:29:31.084Z,24.00
2022-09-14T13:32:03.377Z,23.80
2022-09-14T13:34:34.660Z,23.70
2022-09-14T13:37:02.272Z,23.70
2022-09-14T13:39:38.603Z,23.80
2022-09-14T13:42:06.489Z,23.70
2022-09-14T13:44:36.605Z,23.70
2022-09-14T13:47:05.579Z,23.60
2022-09-14T13:49:34.652Z,23.50
2022-09-14T13:52:25.862Z,23.40
2022-09-14T13:55:24.783Z,23.40
2022-09-14T13:58:09.731Z,23.20
2022-09-14T14:01:02.706Z,23.20
2022-09-14T14:03:49.662Z,23.00
2022-09-14T14:06:30.714Z,22.90
2022-09-14T14:09:11.156Z,22.80
2022-09-14T14:11:41.605Z,22.80
2022-09-14T14:14:21.331Z,22.70
2022-09-14T14:17:32.848Z,22.70
2022-09-14T14:20:21.065Z,22.80
2022-09-14T14:23:01.718Z,22.90
2022-09-14T14:25:33.207Z,22.90
2022-09-14T14:28:14.802Z,22.90
2022-09-14T14:30:42.281Z,22.90
2022-09-14T14:33:14.923Z,22.90
2022-09-14T14:35:42.096Z,22.90
2022-09-14T14:38:09.565Z,23.00
2022-09-14T14:40:37.750Z,23.00
2022-09-14T14:43:06.273Z,22.90
2022-09-14T14:45:36.351Z,22.70
2022-09-14T14:48:03.730Z,22.60
2022-09-14T14:50:34.092Z,22.60
2022-09-14T14:53:01.354Z,22.50
2022-09-14T14:55:31.934Z,22.50
2022-09-14T14:58:01.141Z,22.50
2022-09-14T15:00:29.970Z,22.60
2022-09-14T15:02:56.543Z,22.50
2022-09-14T15:05:23.187Z,22.30
2022-09-14T15:07:52.365Z,22.10
2022-09-14T15:10:19.668Z,22.10
2022-09-14T15:12:46.376Z,22.00
2022-09-14T15:15:15.379Z,21.80
2022-09-14T15:17:42.662Z,21.70
2022-09-14T15:20:10.299Z,21.70
2022-09-14T15:22:37.614Z,21.70
2022-09-14T15:25:05.236Z,21.80
2022-09-14T15:27:32.978Z,21.90
2022-09-14T15:29:59.650Z,22.00
2022-09-14T15:32:26.517Z,22.10
2022-09-14T15:34:53.565Z,22.10
2022-09-14T15:37:20.242Z,22.10
2022-09-14T15:39:50.050Z,22.00
2022-09-14T15:42:18.278Z,22.10
2022-09-14T15:44:45.033Z,22.20
2022-09-14T15:47:14.585Z,22.10
2022-09-14T15:49:42.427Z,22.10
2022-09-14T15:52:11.151Z,22.10
2022-09-14T15:54:38.975Z,22.10
2022-09-14T15:57:08.343Z,22.10
2022-09-14T15:59:34.993Z,22.10
2022-09-14T16:02:01.703Z,22.20
2022-09-14T16:04:28.525Z,22.20
2022-09-14T16:06:55.133Z,22.10
2022-09-14T16:09:22.526Z,21.90
2022-09-14T16:11:49.718Z,22.00
2022-09-14T16:14:16.341Z,22.20
2022-09-14T16:16:43.034Z,22.20
2022-09-14T16:19:12.575Z,22.20
2022-09-14T16:21:40.491Z,22.20
2022-09-14T16:24:15.061Z,22.10
2022-09-14T16:26:42.256Z,22.10
2022-09-14T16:29:14.669Z,22.00
2022-09-14T16:31:43.258Z,21.90
2022-09-14T16:34:19.927Z,21.80
2022-09-14T16:36:47.069Z,21.80
2022-09-14T16:39:16.721Z,21.80
2022-09-14T16:41:43.378Z,21.70
2022-09-14T16:44:19.351Z,21.60
2022-09-14T16:46:48.615Z,21.60
2022-09-14T16:49:16.147Z,21.60
2022-09-14T16:51:43.064Z,21.50
2022-09-14T16:54:14.926Z,21.40
2022-09-14T16:56:41.793Z,21.40
2022-09-14T16:59:09.742Z,21.40
2022-09-14T17:01:38.937Z,21.40
2022-09-14T17:04:09.406Z,21.30
2022-09-14T17:06:38.148Z,21.20
2022-09-14T17:09:07.997Z,21.20
2022-09-14T17:11:36.762Z,21.10
2022-09-14T17:14:04.265Z,21.00
2022-09-14T17:16:31.042Z,21.10
2022-09-14T17:19:00.418Z,21.10
2022-09-14T17:21:32.588Z,21.10
2022-09-14T17:23:59.641Z,21.00
2022-09-14T17:26:26.534Z,21.00
2022-09-14T17:28:56.472Z,21.10
2022-09-14T17:31:26.663Z,21.00
2022-09-14T17:33:54.684Z,20.90
2022-09-14T17:36:22.159Z,20.80
2022-09-14T17:38:50.002Z,20.80
2022-09-14T17:41:20.115Z,20.80
2022-09-14T17:43:58.456Z,20.70
2022-09-14T17:46:25.876Z,20.60
2022-09-14T17:48:53.355Z,20.60
2022-09-14T17:51:24.296Z,20.60
2022-09-14T17:53:53.552Z,20.60
2022-09-14T17:56:22.198Z,20.40
2022-09-14T17:58:50.417Z,20.50
2022-09-14T18:01:19.837Z,20.50
2022-09-14T18:03:52.233Z,20.50
2022-09-14T18:06:19.923Z,20.50
2022-09-14T18:08:47.154Z,20.40
2022-09-14T18:11:16.514Z,20.40
2022-09-14T18:13:45.293Z,20.40
2022-09-14T18:16:13.671Z,20.30
2022-09-14T18:18:40.771Z,20.30
2022-09-14T18:21:08.159Z,20.20
2022-09-14T18:23:35.565Z,20.20
2022-09-14T18:26:04.101Z,20.10
2022-09-14T18:28:30.956Z,20.10
2022-09-14T18:31:09.054Z,20.10
2022-09-14T18:33:36.456Z,20.10
2022-09-14T18:36:04.985Z,20.10
2022-09-14T18:38:32.281Z,20.10
2022-09-14T18:41:06.782Z,20.10
2022-09-14T18:43:33.638Z,20.10
2022-09-14T18:46:00.363Z,20.10
2022-09-14T18:48:27.073Z,20.10
2022-09-14T18:50:53.987Z,20.10
2022-09-14T18:53:20.651Z,20.10
2022-09-14T18:55:47.340Z,20.10
2022-09-14T18:58:13.990Z,20.10
2022-09-14T19:00:44.933Z,20.10
2022-09-14T19:03:12.570Z,20.10
2022-09-14T19:05:41.426Z,20.10
2022-09-14T19:08:10.065Z,20.00
2022-09-14T19:10:37.939Z,19.90
2022-09-14T19:13:06.290Z,20.00
2022-09-14T19:15:33.317Z,19.90
2022-09-14T19:18:00.069Z,19.90
2022-09-14T19:20:38.160Z,19.90
2022-09-14T19:23:13.342Z,19.90
2022-09-14T19:25:40.553Z,19.80
2022-09-14T19:28:07.622Z,19.80
2022-09-14T19:30:36.227Z,19.80
2022-09-14T19:33:02.876Z,19.80
2022-09-14T19:35:30.434Z,19.80
2022-09-14T19:37:57.849Z,19.70
2022-09-14T19:40:24.787Z,19.70
2022-09-14T19:42:52.020Z,19.70
2022-09-14T19:45:19.073Z,19.70
2022-09-14T19:47:46.007Z,19.70
2022-09-14T19:50:12.798Z,19.60
2022-09-14T19:52:39.485Z,19.50
2022-09-14T19:55:06.539Z,19.50
2022-09-14T19:57:35.080Z,19.50
2022-09-14T20:00:01.964Z,19.40
2022-09-14T20:02:28.671Z,19.30
2022-09-14T20:04:55.532Z,19.30
2022-09-14T20:07:22.180Z,19.30
2022-09-14T20:09:48.806Z,19.30
2022-09-14T20:12:15.426Z,19.30
2022-09-14T20:14:42.020Z,19.30
2022-09-14T20:17:08.654Z,19.30
2022-09-14T20:19:36.430Z,19.40
2022-09-14T20:22:03.219Z,19.40
2022-09-14T20:24:32.253Z,19.40
2022-09-14T20:27:00.720Z,19.40
2022-09-14T20:29:30.512Z,19.40
2022-09-14T20:31:58.460Z,19.50
2022-09-14T20:34:25.371Z,19.50
2022-09-14T20:36:53.036Z,19.40
2022-09-14T20:39:22.116Z,19.30
2022-09-14T20:41:49.409Z,19.30
2022-09-14T20:44:21.819Z,19.30
2022-09-14T20:46:49.657Z,19.20
2022-09-14T20:49:19.330Z,19.10
2022-09-14T20:51:46.077Z,19.10
2022-09-14T20:54:16.485Z,19.10
2022-09-14T20:56:44.083Z,19.10
2022-09-14T20:59:14.439Z,19.20
2022-09-14T21:01:42.708Z,19.20
2022-09-14T21:04:11.865Z,19.20
2022-09-14T21:06:41.184Z,19.20
2022-09-14T21:09:09.396Z,19.20
2022-09-14T21:11:36.674Z,19.10
2022-09-14T21:14:03.891Z,19.10
2022-09-14T21:16:36.970Z,19.10
2022-09-14T21:19:08.957Z,19.10
2022-09-14T21:21:35.899Z,19.00
2022-09-14T21:24:02.847Z,19.10
2022-09-14T21:26:33.855Z,19.00
2022-09-14T21:29:03.383Z,19.00
2022-09-14T21:31:30.330Z,19.00
2022-09-14T21:33:59.116Z,19.00
2022-09-14T21:36:28.359Z,19.00
2022-09-14T21:38:59.869Z,19.00
2022-09-14T21:41:28.933Z,19.00
2022-09-14T21:43:57.220Z,19.00
2022-09-14T21:46:25.070Z,19.10
2022-09-14T21:48:52.355Z,19.20
2022-09-14T21:51:20.202Z,19.10
2022-09-14T21:53:50.170Z,19.20
2022-09-14T21:56:17.945Z,19.20
2022-09-14T21:58:48.970Z,19.30
2022-09-14T22:01:16.424Z,19.30
2022-09-14T22:03:43.299Z,19.30
2022-09-14T22:06:12.969Z,19.40
2022-09-14T22:08:39.794Z,19.40
2022-09-14T22:11:10.587Z,19.50
2022-09-14T22:13:38.307Z,19.50
2022-09-14T22:16:12.360Z,19.50
2022-09-14T22:18:40.399Z,19.50
2022-09-14T22:21:07.930Z,19.50
2022-09-14T22:23:35.517Z,19.50
2022-09-14T22:26:11.786Z,19.50
2022-09-14T22:28:40.772Z,19.60
2022-09-14T22:31:09.047Z,19.60
2022-09-14T22:33:36.086Z,19.70
2022-09-14T22:36:03.981Z,19.60
2022-09-14T22:38:34.088Z,19.70
2022-09-14T22:41:06.339Z,19.70
2022-09-14T22:43:34.777Z,19.70
2022-09-14T22:46:01.916Z,19.70
2022-09-14T22:48:29.266Z,19.50
2022-09-14T22:50:57.553Z,19.50
2022-09-14T22:53:25.781Z,19.40
2022-09-14T22:55:52.566Z,19.40
2022-09-14T22:58:22.291Z,19.40
2022-09-14T23:00:49.362Z,19.50
2022-09-14T23:03:17.169Z,19.50
2022-09-14T23:05:53.026Z,19.50
2022-09-14T23:08:20.065Z,19.50
2022-09-14T23:10:47.976Z,19.50
2022-09-14T23:13:15.821Z,19.50
2022-09-14T23:15:42.703Z,19.50
2022-09-14T23:18:09.727Z,19.50
2022-09-14T23:20:42.642Z,19.50
2022-09-14T23:23:10.823Z,19.50
2022-09-14T23:25:39.378Z,19.50
2022-09-14T23:28:07.608Z,19.50
2022-09-14T23:30:34.693Z,19.50
2022-09-14T23:33:01.468Z,19.50
2022-09-14T23:35:29.045Z,19.40
2022-09-14T23:37:56.302Z,19.30
2022-09-14T23:40:23.988Z,19.20
2022-09-14T23:42:50.821Z,19.10
2022-09-14T23:45:17.595Z,19.00
2022-09-14T23:47:45.969Z,19.00
2022-09-14T23:50:12.629Z,19.10
2022-09-14T23:52:40.223Z,19.00
2022-09-14T23:55:07.486Z,19.10
2022-09-14T23:57:34.134Z,19.10
